CYGT

Details ICAO CYGT (YGT)
Name Igloolik
Region Canada
Timezone America/Iqaluit (UTC-5.0)
Plans Departing 3
Arriving 14
Stats Elevation 98 ft / 30 m (AMSL)
Location 69.364800° -81.817100°
Runways 1
Magnetic Variation 27.302° W
Sunrise Unknown / Unknown
Sunset Unknown / Unknown
Advertisement - Login to hide

Runways

ID Width Length Bearing (true/mag) Surface Threshold Overrun Markings Lighting
15 98 ft / 30 m 4,502 ft / 1,372 m 145.64° / 172.94° DIRT 0 ft / 0 m 0 ft / 0 m NONE EDGE THRESHOLD
33 98 ft / 30 m 4,502 ft / 1,372 m 325.65° / 352.96° DIRT 0 ft / 0 m 0 ft / 0 m NONE EDGE THRESHOLD

Map

Weather


0- 5 10 15 20 25 30 35+ Temperature / °C

Clouds and Precipitation
Forecast for 2018-12-10 00:00 UTC. Updated 2 hours ago

Ground ~20,000 ft ~40,000 ft Winds

METAR

Not found

TAF

TAF CYGT 091812Z 0918/0921 VRB03KT P6SM FEW012 BKN080 TEMPO 0918/0921 3SM -SN BR OVC012 RMK NXT FCST WILL BE ISSUED AT 101245Z
Warning: Do not use this data for real-world aviation or navigation. No guarantee of current accuracy is given.